Time;durP1;ratioP1;P1;durP2;ratioP2;P2;SDS_P1;SDS_P2;PMS_P1;PMS_P2;Temp;Humidity;BMP_temperature;BMP_pressure;BME280_temperature;BME280_humidity;BME280_pressure;Samples;Min_cycle;Max_cycle;Signal;HPM_P1;HPM_P2
2022/01/28 00:04:47;;;;;;;33.33;5.38;;;4.00;99.90;;;;;;4818514;29;20065;-80
2022/01/28 00:07:13;;;;;;;33.03;4.15;;;4.50;99.90;;;;;;4806704;29;20103;-80
2022/01/28 00:09:39;;;;;;;27.80;4.43;;;4.30;99.90;;;;;;4818736;29;20093;-80
2022/01/28 00:12:07;;;;;;;31.52;5.35;;;5.00;99.90;;;;;;4815394;29;20051;-81
2022/01/28 00:14:44;;;;;;;30.95;4.47;;;4.20;99.90;;;;;;4806792;29;20090;-81
2022/01/28 00:38:55;;;;;;;36.10;5.00;;;4.10;99.90;;;;;;4808517;29;20062;-82
2022/01/28 00:41:21;;;;;;;26.13;4.10;;;;;;;;;;4801928;29;20057;-81
2022/01/28 00:43:48;;;;;;;26.95;4.00;;;;;;;;;;4803290;29;20051;-81
2022/01/28 00:46:13;;;;;;;27.73;4.15;;;3.00;99.90;;;;;;4802722;29;20062;-81
2022/01/28 00:48:39;;;;;;;28.30;3.58;;;5.10;99.90;;;;;;4802016;29;20420;-79
2022/01/28 00:51:05;;;;;;;28.15;3.65;;;5.50;99.90;;;;;;4787476;29;20061;-80
2022/01/28 00:53:31;;;;;;;23.85;3.90;;;4.10;99.90;;;;;;4804248;29;20055;-81
2022/01/28 00:55:58;;;;;;;25.85;3.83;;;4.90;99.90;;;;;;4807706;29;20114;-80
2022/01/28 00:58:24;;;;;;;19.05;3.30;;;6.00;99.90;;;;;;4801972;29;20051;-81
2022/01/28 01:00:50;;;;;;;26.17;4.05;;;5.00;99.90;;;;;;4787491;29;20097;-81
2022/01/28 01:03:16;;;;;;;20.65;3.28;;;2.80;99.90;;;;;;4807235;29;20081;-81
2022/01/28 01:05:42;;;;;;;26.55;3.80;;;3.10;99.90;;;;;;4804529;29;20449;-81
2022/01/28 01:08:08;;;;;;;19.67;3.67;;;4.00;99.90;;;;;;4804705;29;20047;-81
2022/01/28 01:10:34;;;;;;;21.50;3.50;;;6.20;99.90;;;;;;4801878;29;20500;-81
2022/01/28 01:13:00;;;;;;;24.88;3.92;;;4.00;99.90;;;;;;4810676;29;20108;-80
2022/01/28 01:15:31;;;;;;;23.15;3.65;;;2.70;99.90;;;;;;4809557;29;20089;-80
2022/01/28 01:18:22;;;;;;;24.05;3.83;;;4.00;99.90;;;;;;4802318;29;20050;-80
2022/01/28 01:23:21;;;;;;;31.02;4.20;;;4.50;99.90;;;;;;4806423;29;20561;-80
2022/01/28 01:25:52;;;;;;;30.10;4.30;;;;;;;;;;4806018;29;20145;-82
2022/01/28 01:28:22;;;;;;;20.73;4.18;;;5.00;99.90;;;;;;4795943;29;20051;-80
2022/01/28 01:30:48;;;;;;;28.35;4.28;;;4.60;99.90;;;;;;4797531;29;20511;-80
2022/01/28 01:33:19;;;;;;;35.75;4.28;;;2.00;99.90;;;;;;4813482;29;20461;-80
2022/01/28 01:35:44;;;;;;;29.60;4.65;;;5.20;99.90;;;;;;4812840;29;20110;-80
2022/01/28 01:38:11;;;;;;;28.40;4.40;;;2.80;99.90;;;;;;4806500;29;20134;-80
2022/01/28 01:43:29;;;;;;;34.83;5.45;;;4.70;99.90;;;;;;4803801;29;20078;-80
2022/01/28 01:54:09;;;;;;;26.48;4.68;;;;;;;;;;4810590;29;20058;-81
2022/01/28 01:56:38;;;;;;;35.22;5.30;;;4.50;99.90;;;;;;4805208;29;20057;-79
2022/01/28 01:59:03;;;;;;;33.47;5.35;;;4.20;99.90;;;;;;4808125;29;20046;-79
2022/01/28 02:01:29;;;;;;;45.58;6.35;;;4.60;99.90;;;;;;4805795;29;20146;-79
2022/01/28 02:03:55;;;;;;;33.80;5.63;;;3.80;99.90;;;;;;4811163;29;20123;-79
2022/01/28 02:06:22;;;;;;;29.85;4.97;;;3.40;99.90;;;;;;4804479;29;20111;-79
2022/01/28 02:08:48;;;;;;;38.25;6.18;;;6.10;99.90;;;;;;4814509;29;20522;-79
2022/01/28 02:11:14;;;;;;;31.23;4.82;;;4.50;99.90;;;;;;4818004;29;20096;-80
2022/01/28 02:13:41;;;;;;;43.55;5.32;;;5.20;99.90;;;;;;4809384;29;20103;-80
2022/01/28 02:16:08;;;;;;;34.38;5.30;;;5.60;99.90;;;;;;4809006;29;20496;-80
2022/01/28 02:18:34;;;;;;;35.30;5.65;;;5.10;99.90;;;;;;4805145;29;20493;-80
2022/01/28 02:21:09;;;;;;;43.15;5.38;;;4.40;99.90;;;;;;4810149;29;20047;-79
2022/01/28 02:23:36;;;;;;;46.63;5.93;;;4.20;99.90;;;;;;4788602;29;20520;-79
2022/01/28 02:26:03;;;;;;;45.30;6.65;;;;;;;;;;4805208;29;20093;-80
2022/01/28 02:28:33;;;;;;;32.28;5.53;;;4.50;99.90;;;;;;4805289;29;20058;-80
2022/01/28 02:31:02;;;;;;;30.35;5.25;;;5.40;99.90;;;;;;4816861;29;20058;-80
2022/01/28 02:33:28;;;;;;;43.33;5.95;;;6.60;99.90;;;;;;4805776;29;20417;-79
2022/01/28 02:35:53;;;;;;;33.58;5.03;;;2.80;99.90;;;;;;4818088;29;20058;-80
2022/01/28 02:38:22;;;;;;;40.03;6.10;;;4.60;99.90;;;;;;4804695;29;20046;-80
2022/01/28 02:40:56;;;;;;;29.70;4.72;;;5.10;99.90;;;;;;4805288;29;20082;-79
2022/01/28 02:45:51;;;;;;;46.03;5.57;;;5.80;99.90;;;;;;4805057;29;20478;-80
2022/01/28 02:48:20;;;;;;;37.30;5.55;;;4.40;99.90;;;;;;4812230;29;20054;-81
2022/01/28 02:56:33;;;;;;;35.13;5.15;;;4.60;99.90;;;;;;4812500;29;20062;-80
2022/01/28 02:58:59;;;;;;;34.80;5.18;;;5.00;99.90;;;;;;4787722;29;20484;-79
2022/01/28 03:01:25;;;;;;;45.85;6.43;;;3.80;99.90;;;;;;4788908;29;20119;-80
2022/01/28 03:03:51;;;;;;;37.28;5.53;;;6.30;99.90;;;;;;4787228;29;20508;-79
2022/01/28 03:06:19;;;;;;;40.63;4.90;;;6.40;99.90;;;;;;4789655;29;20043;-82
2022/01/28 03:08:58;;;;;;;41.95;5.43;;;4.80;99.90;;;;;;4791855;29;20046;-81
2022/01/28 03:16:39;;;;;;;42.72;6.05;;;6.50;99.90;;;;;;4810186;29;20065;-80
2022/01/28 03:19:18;;;;;;;43.78;6.07;;;4.40;99.90;;;;;;4816969;29;20050;-81
2022/01/28 03:21:53;;;;;;;33.03;5.78;;;3.70;99.90;;;;;;4805923;29;20058;-80
2022/01/28 03:24:20;;;;;;;24.85;4.93;;;;;;;;;;4806781;29;20049;-80
2022/01/28 03:26:49;;;;;;;44.55;6.07;;;4.20;99.90;;;;;;4787618;29;20267;-79
2022/01/28 03:29:15;;;;;;;44.72;5.40;;;;;;;;;;4804501;29;20051;-80
2022/01/28 03:31:41;;;;;;;28.08;5.03;;;;;;;;;;4808746;29;20054;-79
2022/01/28 03:34:07;;;;;;;26.52;5.32;;;4.30;99.90;;;;;;4805334;29;20059;-79
2022/01/28 03:36:32;;;;;;;34.30;4.93;;;5.30;99.90;;;;;;4795103;29;20274;-80
2022/01/28 03:38:58;;;;;;;43.35;5.72;;;7.10;99.90;;;;;;4811312;29;20233;-79
2022/01/28 03:41:25;;;;;;;32.35;4.93;;;;;;;;;;4801904;29;20146;-82
2022/01/28 03:43:57;;;;;;;43.47;5.32;;;4.40;99.90;;;;;;4785570;29;20478;-79
2022/01/28 03:46:25;;;;;;;34.00;5.28;;;6.40;99.90;;;;;;4804140;29;20054;-82
2022/01/28 03:48:51;;;;;;;34.15;5.80;;;6.80;99.90;;;;;;4802455;29;20107;-79
2022/01/28 03:51:16;;;;;;;31.58;5.70;;;4.40;99.90;;;;;;4801797;29;20077;-80
2022/01/28 03:53:42;;;;;;;42.25;5.20;;;5.50;99.90;;;;;;4813880;29;20055;-80
2022/01/28 03:56:08;;;;;;;42.00;6.07;;;6.90;99.90;;;;;;4802514;29;20133;-79
2022/01/28 03:58:33;;;;;;;33.05;5.05;;;6.80;99.90;;;;;;4801073;29;20043;-80
2022/01/28 04:00:59;;;;;;;31.52;5.30;;;4.30;99.90;;;;;;4806877;29;20081;-80
2022/01/28 04:13:56;;;;;;;34.47;5.20;;;4.20;99.90;;;;;;4801313;29;20055;-80
2022/01/28 04:18:50;;;;;;;31.25;5.22;;;6.00;99.90;;;;;;4787052;29;20058;-79
2022/01/28 04:21:16;;;;;;;27.38;5.40;;;5.70;99.90;;;;;;4801422;29;20536;-79
2022/01/28 04:23:42;;;;;;;28.15;5.05;;;4.50;99.90;;;;;;4804043;29;20130;-79
2022/01/28 04:26:07;;;;;;;28.00;5.70;;;5.90;99.90;;;;;;4803700;29;20047;-80
2022/01/28 04:28:33;;;;;;;31.45;5.28;;;6.40;99.90;;;;;;4809513;29;20056;-81
2022/01/28 04:30:59;;;;;;;34.45;6.15;;;6.50;99.90;;;;;;4809921;29;20111;-79
2022/01/28 04:33:25;;;;;;;36.80;5.53;;;5.50;99.90;;;;;;4811170;29;20039;-80
2022/01/28 04:35:54;;;;;;;33.83;5.60;;;6.10;99.90;;;;;;4779381;29;20058;-79
2022/01/28 04:41:01;;;;;;;27.40;4.80;;;3.90;99.90;;;;;;4813686;29;20496;-79
2022/01/28 04:43:34;;;;;;;;;;;4.50;99.90;;;;;;4790836;29;20054;-81
2022/01/28 04:48:47;;;;;;;35.08;5.78;;;3.40;99.90;;;;;;4812712;29;20058;-80
2022/01/28 04:54:04;;;;;;;33.67;5.77;;;4.70;99.90;;;;;;4804541;29;20476;-80
2022/01/28 05:04:43;;;;;;;41.63;6.05;;;3.90;99.90;;;;;;4768602;29;20138;-80
2022/01/28 05:10:31;;;;;;;39.67;5.85;;;2.70;99.90;;;;;;4810979;29;20066;-79
2022/01/28 05:28:48;;;;;;;36.88;5.35;;;5.10;99.90;;;;;;4803359;29;20054;-79
2022/01/28 05:31:16;;;;;;;39.75;5.78;;;5.00;99.90;;;;;;4804359;29;20082;-79
2022/01/28 05:33:41;;;;;;;44.03;5.43;;;4.10;99.90;;;;;;4799380;29;20227;-79
2022/01/28 05:36:07;;;;;;;32.47;5.80;;;3.80;99.90;;;;;;4804600;29;20515;-78
2022/01/28 05:38:33;;;;;;;34.47;5.32;;;4.70;99.90;;;;;;4796228;29;20600;-78
2022/01/28 05:40:59;;;;;;;36.25;5.60;;;4.00;99.90;;;;;;4774543;29;20062;-78
2022/01/28 05:43:24;;;;;;;33.10;5.18;;;4.60;99.90;;;;;;4787285;29;20079;-78
2022/01/28 05:45:50;;;;;;;37.75;5.65;;;4.50;99.90;;;;;;4802133;29;20090;-78
2022/01/28 05:48:17;;;;;;;33.25;5.60;;;4.10;99.90;;;;;;4807200;29;20069;-77
2022/01/28 05:50:42;;;;;;;36.72;6.25;;;7.20;99.90;;;;;;4782564;29;20058;-78
2022/01/28 05:53:08;;;;;;;37.00;5.07;;;5.80;99.90;;;;;;4812733;29;20319;-78
2022/01/28 05:55:35;;;;;;;36.67;5.47;;;4.70;99.90;;;;;;4806544;29;20078;-79
2022/01/28 05:58:01;;;;;;;40.70;5.93;;;3.20;99.90;;;;;;4809534;29;20050;-78
2022/01/28 06:00:26;;;;;;;30.58;5.45;;;5.90;99.90;;;;;;4786134;29;20128;-77
2022/01/28 06:02:52;;;;;;;33.72;5.65;;;4.70;99.90;;;;;;4802334;29;20059;-78
2022/01/28 06:05:18;;;;;;;34.25;5.97;;;;;;;;;;4803266;29;20050;-77
2022/01/28 06:07:44;;;;;;;37.13;6.00;;;3.60;99.90;;;;;;4786655;29;20421;-79
2022/01/28 06:10:11;;;;;;;34.83;5.15;;;6.20;99.90;;;;;;4807095;29;20093;-77
2022/01/28 06:12:45;;;;;;;31.90;6.00;;;4.20;99.90;;;;;;4814677;29;20526;-77
2022/01/28 06:15:12;;;;;;;42.42;5.68;;;4.30;99.90;;;;;;4803445;29;20039;-78
2022/01/28 06:17:37;;;;;;;35.75;6.25;;;4.30;99.90;;;;;;4814037;29;20137;-78
2022/01/28 06:20:06;;;;;;;34.95;5.22;;;4.50;99.90;;;;;;4809340;29;20506;-78
2022/01/28 06:22:32;;;;;;;27.63;4.65;;;4.30;99.90;;;;;;4821511;29;20404;-78
2022/01/28 06:24:57;;;;;;;31.05;5.30;;;4.20;99.90;;;;;;4812254;29;20354;-78
2022/01/28 06:27:23;;;;;;;38.80;4.97;;;3.00;99.90;;;;;;4790213;29;20058;-77
2022/01/28 06:29:50;;;;;;;29.67;5.43;;;4.10;99.90;;;;;;4806366;29;20058;-78
2022/01/28 06:32:16;;;;;;;36.05;6.00;;;4.40;99.90;;;;;;4808750;29;20090;-78
2022/01/28 06:34:43;;;;;;;48.42;5.65;;;6.10;99.90;;;;;;4796471;29;20067;-78
2022/01/28 06:37:09;;;;;;;33.67;5.07;;;5.40;99.90;;;;;;4820378;29;20058;-77
2022/01/28 06:39:35;;;;;;;37.55;4.75;;;6.50;99.90;;;;;;4819462;29;20133;-78
2022/01/28 06:42:00;;;;;;;31.33;5.90;;;6.30;99.90;;;;;;4805619;29;20126;-78
2022/01/28 06:44:26;;;;;;;26.90;5.22;;;4.80;99.90;;;;;;4798656;29;20042;-77
2022/01/28 06:46:52;;;;;;;38.42;5.47;;;;;;;;;;4811659;29;20050;-78
2022/01/28 06:49:18;;;;;;;36.33;5.20;;;4.50;99.90;;;;;;4820273;29;20385;-77
2022/01/28 06:51:44;;;;;;;26.60;5.05;;;4.40;99.90;;;;;;4805805;29;20405;-78
2022/01/28 06:54:10;;;;;;;30.75;4.68;;;4.70;99.90;;;;;;4822633;29;20053;-77
2022/01/28 06:56:36;;;;;;;26.08;4.75;;;5.60;99.90;;;;;;4802090;29;20051;-78
2022/01/28 06:59:03;;;;;;;27.52;4.88;;;4.20;99.90;;;;;;4806322;29;20057;-78
2022/01/28 07:01:28;;;;;;;28.02;4.75;;;6.50;99.90;;;;;;4809142;29;20062;-78
2022/01/28 07:03:54;;;;;;;32.85;5.30;;;5.60;99.90;;;;;;4804893;29;20588;-77
2022/01/28 07:06:21;;;;;;;39.03;5.90;;;2.20;99.90;;;;;;4800787;29;20137;-77
2022/01/28 07:08:47;;;;;;;25.70;4.97;;;5.40;99.90;;;;;;4810608;29;20524;-77
2022/01/28 07:11:13;;;;;;;30.80;5.22;;;5.40;99.90;;;;;;4808699;29;20053;-77
2022/01/28 07:13:39;;;;;;;33.63;6.22;;;5.10;99.90;;;;;;4800130;29;20056;-77
2022/01/28 07:16:05;;;;;;;32.30;6.00;;;4.70;99.90;;;;;;4823405;29;20050;-77
2022/01/28 07:18:30;;;;;;;34.13;4.75;;;4.40;99.90;;;;;;4808513;29;20055;-77
2022/01/28 07:20:56;;;;;;;36.85;5.30;;;3.70;99.90;;;;;;4805168;29;20069;-77
2022/01/28 07:23:22;;;;;;;26.52;4.85;;;4.30;99.90;;;;;;4805289;29;20078;-77
2022/01/28 07:25:47;;;;;;;29.25;5.28;;;3.40;99.90;;;;;;4805118;29;20129;-77
2022/01/28 07:28:13;;;;;;;33.92;5.32;;;5.40;99.90;;;;;;4804079;29;20084;-77
2022/01/28 07:30:39;;;;;;;34.88;5.05;;;;;;;;;;4805009;29;20070;-77
2022/01/28 07:33:07;;;;;;;29.33;5.18;;;3.10;99.90;;;;;;4803714;29;20155;-77
2022/01/28 07:35:34;;;;;;;;;;;6.70;99.90;;;;;;4805609;29;20508;-77
2022/01/28 07:37:59;;;;;;;31.13;5.10;;;4.30;99.90;;;;;;4791897;29;20370;-77
2022/01/28 07:40:25;;;;;;;27.50;5.05;;;4.00;99.90;;;;;;4804850;29;20051;-77
2022/01/28 07:42:51;;;;;;;32.03;4.85;;;6.30;99.90;;;;;;4803767;29;20070;-79
2022/01/28 07:45:17;;;;;;;32.17;4.85;;;;;;;;;;4815172;29;20449;-77
2022/01/28 07:47:44;;;;;;;25.80;5.10;;;4.30;99.90;;;;;;4806488;29;20643;-77
2022/01/28 07:50:11;;;;;;;26.55;5.10;;;4.40;99.90;;;;;;4785396;30;20139;-77
2022/01/28 07:52:37;;;;;;;37.10;6.53;;;3.60;99.90;;;;;;4803231;29;20063;-78
2022/01/28 07:55:05;;;;;;;29.00;5.00;;;4.00;99.90;;;;;;4804198;29;20047;-77
2022/01/28 07:57:30;;;;;;;22.30;4.53;;;4.50;99.90;;;;;;4816890;29;20054;-77
2022/01/28 07:59:56;;;;;;;46.30;6.03;;;;;;;;;;4803612;29;20051;-77
2022/01/28 08:02:22;;;;;;;40.95;5.38;;;4.50;99.90;;;;;;4812923;29;20110;-77
2022/01/28 08:04:48;;;;;;;35.10;5.35;;;5.90;99.90;;;;;;4806801;29;20050;-77
2022/01/28 08:07:14;;;;;;;29.45;6.07;;;5.10;99.90;;;;;;4785503;29;20457;-77
2022/01/28 08:09:40;;;;;;;31.92;5.03;;;4.30;99.90;;;;;;4792103;29;20054;-77
2022/01/28 08:12:06;;;;;;;33.00;5.55;;;3.70;99.90;;;;;;4804714;29;20034;-77
2022/01/28 08:14:32;;;;;;;35.35;5.65;;;4.30;99.90;;;;;;4803066;29;20044;-77
2022/01/28 08:16:58;;;;;;;33.22;5.20;;;5.30;99.90;;;;;;4822999;29;20054;-77
2022/01/28 08:19:24;;;;;;;43.25;6.70;;;5.50;99.90;;;;;;4822958;29;20442;-77
2022/01/28 08:21:49;;;;;;;46.33;5.90;;;6.50;99.90;;;;;;4822812;29;20053;-78
2022/01/28 08:24:15;;;;;;;32.17;5.13;;;4.50;99.90;;;;;;4804382;29;20046;-77
2022/01/28 08:26:41;;;;;;;36.88;5.15;;;4.20;99.90;;;;;;4805390;29;20115;-77
2022/01/28 08:29:07;;;;;;;28.77;5.05;;;4.40;99.90;;;;;;4818831;29;20050;-77
2022/01/28 08:31:34;;;;;;;39.83;7.68;;;4.30;99.90;;;;;;4803603;29;20046;-78
2022/01/28 08:34:01;;;;;;;36.47;5.32;;;4.00;99.90;;;;;;4785418;29;20059;-77
2022/01/28 08:36:27;;;;;;;28.77;5.53;;;5.40;99.90;;;;;;4795682;29;20386;-77
2022/01/28 08:38:55;;;;;;;34.83;5.88;;;6.40;99.90;;;;;;4789709;29;20111;-77
2022/01/28 08:41:22;;;;;;;36.35;5.95;;;4.70;99.90;;;;;;4822748;29;20053;-76
2022/01/28 08:43:48;;;;;;;29.33;5.28;;;;;;;;;;4820718;29;20042;-77
2022/01/28 08:46:14;;;;;;;29.10;4.80;;;1.30;99.90;;;;;;4821686;29;20097;-77
2022/01/28 08:48:39;;;;;;;34.75;5.70;;;4.00;99.90;;;;;;4792588;29;20086;-77
2022/01/28 08:51:05;;;;;;;31.83;4.80;;;5.40;99.90;;;;;;4787813;29;20046;-77
2022/01/28 08:53:31;;;;;;;25.25;5.47;;;4.10;99.90;;;;;;4804109;29;20123;-76
2022/01/28 08:55:58;;;;;;;23.75;5.05;;;4.30;99.90;;;;;;4787459;29;20055;-80
2022/01/28 08:58:23;;;;;;;34.00;5.10;;;2.60;99.90;;;;;;4812751;29;20047;-77
2022/01/28 09:00:50;;;;;;;26.40;5.78;;;4.40;99.90;;;;;;4804449;29;20053;-78
2022/01/28 09:03:17;;;;;;;33.72;5.20;;;6.50;99.90;;;;;;4821567;29;20057;-76
2022/01/28 09:05:43;;;;;;;41.13;5.30;;;5.30;99.90;;;;;;4806065;29;20083;-77
2022/01/28 09:08:10;;;;;;;29.88;5.60;;;4.80;99.90;;;;;;4800123;29;20042;-77
2022/01/28 09:10:42;;;;;;;29.48;5.55;;;5.20;99.90;;;;;;4809286;29;20046;-77
2022/01/28 09:15:35;;;;;;;32.95;5.18;;;7.20;99.90;;;;;;4804090;29;20055;-77
2022/01/28 09:18:01;;;;;;;39.35;5.97;;;8.10;99.90;;;;;;4806774;29;20055;-78
2022/01/28 09:20:28;;;;;;;25.48;5.57;;;5.60;99.90;;;;;;4822465;29;20050;-77
2022/01/28 09:22:54;;;;;;;31.80;5.25;;;7.40;99.90;;;;;;4815376;29;20054;-77
2022/01/28 09:25:20;;;;;;;34.22;4.93;;;6.10;99.90;;;;;;4803531;29;20074;-78
2022/01/28 09:27:45;;;;;;;32.40;5.35;;;7.60;99.90;;;;;;4804013;29;20054;-80
2022/01/28 09:30:11;;;;;;;35.55;5.45;;;4.80;99.90;;;;;;4818941;29;20488;-77
2022/01/28 09:32:37;;;;;;;37.75;5.50;;;5.60;99.90;;;;;;4819061;29;20183;-77
2022/01/28 09:35:03;;;;;;;37.28;5.32;;;6.30;99.90;;;;;;4803141;29;20063;-78
2022/01/28 09:37:29;;;;;;;30.30;4.78;;;6.60;99.90;;;;;;4803929;29;20062;-77
2022/01/28 09:39:55;;;;;;;39.47;6.13;;;6.40;99.90;;;;;;4803899;29;20055;-77
2022/01/28 09:42:25;;;;;;;34.35;5.57;;;6.60;99.90;;;;;;4803632;29;20115;-77
2022/01/28 09:44:51;;;;;;;26.05;4.97;;;6.60;99.90;;;;;;4817712;29;20077;-77
2022/01/28 09:47:16;;;;;;;37.67;6.22;;;6.00;99.90;;;;;;4812883;29;20078;-77
2022/01/28 09:49:42;;;;;;;33.30;5.80;;;7.20;99.90;;;;;;4813071;29;20050;-77
2022/01/28 09:52:12;;;;;;;26.23;5.72;;;6.60;99.90;;;;;;4805364;29;20046;-77
2022/01/28 09:54:38;;;;;;;35.55;5.50;;;7.60;99.90;;;;;;4806197;29;20046;-77
2022/01/28 09:57:06;;;;;;;32.53;5.00;;;8.00;99.90;;;;;;4809213;29;20341;-78
2022/01/28 09:59:33;;;;;;;32.75;5.47;;;6.80;99.90;;;;;;4821577;29;20097;-77
2022/01/28 10:01:59;;;;;;;48.10;16.30;;;8.50;99.90;;;;;;4811012;29;20047;-77
2022/01/28 10:04:26;;;;;;;44.35;10.60;;;6.90;99.90;;;;;;4806459;29;20054;-77
2022/01/28 10:06:54;;;;;;;38.80;7.35;;;7.70;99.90;;;;;;4801116;29;20504;-77
2022/01/28 10:09:19;;;;;;;;;;;7.00;99.90;;;;;;4796417;29;20473;-77
2022/01/28 10:11:49;;;;;;;32.58;7.35;;;8.20;99.90;;;;;;4789149;29;19925;-78
2022/01/28 10:14:21;;;;;;;31.02;5.38;;;8.60;99.90;;;;;;4777860;29;20047;-78
2022/01/28 10:17:00;;;;;;;38.67;9.73;;;8.90;99.90;;;;;;4815937;29;20091;-78
2022/01/28 10:19:27;;;;;;;29.85;5.55;;;7.10;99.90;;;;;;4811217;29;20047;-78
2022/01/28 10:21:54;;;;;;;36.03;5.80;;;9.30;99.90;;;;;;4806928;29;20062;-77
2022/01/28 10:24:27;;;;;;;37.05;4.60;;;6.70;99.90;;;;;;4805904;29;20055;-77
2022/01/28 10:27:09;;;;;;;41.08;6.10;;;7.10;99.90;;;;;;4807076;29;20059;-77
2022/01/28 10:29:43;;;;;;;29.83;5.55;;;7.10;99.90;;;;;;4798185;29;20425;-77
2022/01/28 10:32:17;;;;;;;28.08;5.30;;;7.20;99.90;;;;;;4806409;29;20047;-80
2022/01/28 10:34:49;;;;;;;28.42;5.05;;;8.50;99.90;;;;;;4806279;29;20140;-77
2022/01/28 10:37:17;;;;;;;31.38;5.53;;;7.30;99.90;;;;;;4801099;29;20398;-77
2022/01/28 10:39:46;;;;;;;32.95;5.55;;;7.40;97.20;;;;;;4807203;29;20068;-77
2022/01/28 10:42:15;;;;;;;29.95;5.78;;;7.40;98.60;;;;;;4806156;29;20490;-77
2022/01/28 10:44:55;;;;;;;32.33;5.40;;;7.50;96.90;;;;;;4805776;29;20092;-77
2022/01/28 10:47:35;;;;;;;31.98;5.63;;;7.70;95.40;;;;;;4805824;29;20069;-77
2022/01/28 10:50:20;;;;;;;28.38;4.57;;;7.50;95.50;;;;;;4806476;29;20051;-77
2022/01/28 10:52:56;;;;;;;32.75;4.70;;;7.60;96.20;;;;;;4806357;29;20138;-78
2022/01/28 10:55:21;;;;;;;22.80;4.45;;;7.20;94.80;;;;;;4806074;29;20449;-78
2022/01/28 10:58:18;;;;;;;48.67;5.05;;;7.60;96.30;;;;;;4809900;29;20086;-80
2022/01/28 11:00:49;;;;;;;33.08;5.40;;;7.70;94.60;;;;;;4802530;29;20492;-77
2022/01/28 11:03:16;;;;;;;32.88;5.95;;;7.90;94.10;;;;;;4819076;29;20130;-77
2022/01/28 11:05:44;;;;;;;32.03;5.40;;;8.10;95.30;;;;;;4806157;29;20398;-77
2022/01/28 11:08:12;;;;;;;35.83;5.43;;;7.90;92.70;;;;;;4804926;29;20343;-77
2022/01/28 11:10:38;;;;;;;;;;;8.60;94.00;;;;;;4805362;29;20509;-78
2022/01/28 11:13:05;;;;;;;27.92;5.22;;;7.70;88.70;;;;;;4804299;29;19974;-77
2022/01/28 11:15:31;;;;;;;22.83;4.60;;;7.80;89.40;;;;;;4804163;29;20047;-77
2022/01/28 11:18:00;;;;;;;31.85;4.35;;;7.90;88.70;;;;;;4794961;29;20054;-77
2022/01/28 11:20:39;;;;;;;37.53;5.70;;;8.00;85.20;;;;;;4805992;29;20049;-77
2022/01/28 11:23:25;;;;;;;27.33;4.53;;;7.70;87.80;;;;;;4791806;29;20288;-77
2022/01/28 11:26:10;;;;;;;22.75;4.05;;;7.70;87.70;;;;;;4805998;29;20063;-77
2022/01/28 11:28:50;;;;;;;25.65;5.50;;;7.80;87.90;;;;;;4812387;29;20065;-77
2022/01/28 11:31:47;;;;;;;29.75;5.07;;;7.90;90.10;;;;;;4807554;29;20245;-80
2022/01/28 11:34:22;;;;;;;30.02;5.45;;;8.00;87.10;;;;;;4786106;30;20214;-77
2022/01/28 11:36:49;;;;;;;33.17;5.45;;;10.10;81.30;;;;;;4802991;29;20069;-77
2022/01/28 11:39:36;;;;;;;26.20;4.65;;;8.70;83.90;;;;;;4805634;29;20050;-77
2022/01/28 11:42:25;;;;;;;28.60;5.43;;;8.10;89.70;;;;;;4804165;29;20456;-80
2022/01/28 11:44:51;;;;;;;26.73;5.15;;;9.00;88.10;;;;;;4804478;29;20043;-77
2022/01/28 11:47:27;;;;;;;31.40;5.15;;;8.00;83.50;;;;;;4805215;29;20074;-76
2022/01/28 11:49:59;;;;;;;32.45;5.45;;;8.00;85.90;;;;;;4804645;29;20123;-76
2022/01/28 11:52:44;;;;;;;25.05;5.25;;;7.80;81.20;;;;;;4804476;29;20150;-77
2022/01/28 11:55:28;;;;;;;32.30;5.38;;;9.60;86.00;;;;;;4775508;29;20395;-77
2022/01/28 11:57:58;;;;;;;28.85;5.40;;;7.90;77.60;;;;;;4817764;29;20065;-77
2022/01/28 12:00:33;;;;;;;32.25;5.57;;;7.50;79.20;;;;;;4813583;29;20141;-77
2022/01/28 12:02:59;;;;;;;23.27;4.22;;;7.80;82.80;;;;;;4799720;29;20151;-77
2022/01/28 12:05:36;;;;;;;32.13;5.40;;;7.70;81.00;;;;;;4822269;29;20492;-77
2022/01/28 12:08:04;;;;;;;27.92;4.50;;;7.50;82.20;;;;;;4823180;29;20054;-77
2022/01/28 12:10:32;;;;;;;29.35;4.95;;;7.50;80.90;;;;;;4821195;29;20050;-77
2022/01/28 12:13:04;;;;;;;30.35;5.55;;;8.30;83.80;;;;;;4822685;29;20065;-77
2022/01/28 12:15:57;;;;;;;22.10;4.00;;;7.40;84.00;;;;;;4822236;29;20138;-77
2022/01/28 12:18:22;;;;;;;28.38;4.55;;;7.50;86.90;;;;;;4804029;29;20088;-77
2022/01/28 12:20:48;;;;;;;25.50;3.95;;;7.50;84.40;;;;;;4805203;29;20050;-77
2022/01/28 12:23:14;;;;;;;27.17;4.75;;;7.50;82.70;;;;;;4812812;29;20054;-77
2022/01/28 12:25:39;;;;;;;25.08;4.60;;;7.10;79.00;;;;;;4804560;29;20069;-77
2022/01/28 12:28:20;;;;;;;25.15;4.45;;;7.30;83.20;;;;;;4803619;29;20059;-77
2022/01/28 12:30:46;;;;;;;20.77;4.30;;;7.30;81.40;;;;;;4807021;29;20059;-77
2022/01/28 12:33:12;;;;;;;24.67;3.97;;;8.10;82.70;;;;;;4810113;29;20066;-77
2022/01/28 12:35:40;;;;;;;31.15;5.05;;;7.10;75.80;;;;;;4804253;29;20492;-77
2022/01/28 12:38:06;;;;;;;31.95;4.97;;;7.40;78.30;;;;;;4804608;29;20134;-77
2022/01/28 12:40:36;;;;;;;26.60;5.13;;;;;;;;;;4804472;29;20134;-77
2022/01/28 12:43:03;;;;;;;27.30;4.13;;;7.50;72.40;;;;;;4822455;29;20054;-77
2022/01/28 12:45:29;;;;;;;36.07;5.60;;;7.40;74.90;;;;;;4818671;29;20070;-77
2022/01/28 12:47:55;;;;;;;24.38;4.28;;;8.40;75.70;;;;;;4804479;29;20059;-77
2022/01/28 12:50:22;;;;;;;29.33;4.55;;;7.80;78.50;;;;;;4807841;29;20053;-77
2022/01/28 12:52:47;;;;;;;25.58;4.68;;;7.90;76.10;;;;;;4814483;29;20054;-77
2022/01/28 12:55:13;;;;;;;28.08;4.18;;;7.80;72.60;;;;;;4822396;29;20046;-77
2022/01/28 12:57:43;;;;;;;21.02;3.72;;;8.00;76.40;;;;;;4813203;29;20497;-77
2022/01/28 13:00:10;;;;;;;24.25;4.22;;;7.70;72.70;;;;;;4803505;29;20082;-78
2022/01/28 13:02:36;;;;;;;28.52;3.92;;;7.90;73.50;;;;;;4784846;29;20419;-77
2022/01/28 13:10:22;;;;;;;28.42;5.03;;;8.00;78.70;;;;;;4804436;29;20469;-77
2022/01/28 13:12:48;;;;;;;24.70;3.88;;;7.50;73.10;;;;;;4803590;29;20054;-77
2022/01/28 13:15:15;;;;;;;29.17;4.22;;;;;;;;;;4804754;29;20103;-77
2022/01/28 13:17:54;;;;;;;25.95;3.97;;;7.40;70.70;;;;;;4803070;29;20093;-77
2022/01/28 13:20:20;;;;;;;22.17;3.92;;;7.50;73.10;;;;;;4788130;29;20401;-77
2022/01/28 13:22:51;;;;;;;33.50;4.47;;;7.50;72.90;;;;;;4805077;29;20130;-78
2022/01/28 13:25:24;;;;;;;30.75;4.32;;;7.70;74.60;;;;;;4806155;29;20146;-77
2022/01/28 13:27:56;;;;;;;23.65;4.63;;;7.70;72.80;;;;;;4803226;29;20054;-79
2022/01/28 13:30:21;;;;;;;22.23;3.58;;;7.50;70.00;;;;;;4806249;29;20051;-77
2022/01/28 13:32:50;;;;;;;24.95;3.88;;;7.40;67.50;;;;;;4809485;29;20062;-78
2022/01/28 13:35:20;;;;;;;21.98;3.53;;;7.60;67.00;;;;;;4815826;29;20063;-77
2022/01/28 13:37:51;;;;;;;22.40;3.75;;;7.30;71.20;;;;;;4789599;30;20055;-78
2022/01/28 13:40:29;;;;;;;28.27;4.03;;;7.30;72.90;;;;;;4789904;29;20055;-77
2022/01/28 13:43:17;;;;;;;27.55;4.22;;;8.70;72.90;;;;;;4788952;29;20409;-77
2022/01/28 13:45:55;;;;;;;26.95;4.82;;;7.40;71.20;;;;;;4788067;30;20051;-77
2022/01/28 13:48:34;;;;;;;27.10;3.67;;;7.40;72.50;;;;;;4803523;29;20054;-77
2022/01/28 13:51:21;;;;;;;29.05;4.10;;;9.00;75.30;;;;;;4789704;29;20117;-78
2022/01/28 13:56:26;;;;;;;29.60;4.07;;;7.10;72.50;;;;;;4789527;29;20097;-77
2022/01/28 13:58:53;;;;;;;26.83;4.70;;;9.00;74.10;;;;;;4788405;29;20100;-77
2022/01/28 14:01:28;;;;;;;23.37;4.50;;;7.00;73.90;;;;;;4799852;29;20557;-77
2022/01/28 14:03:59;;;;;;;26.20;3.90;;;7.10;75.30;;;;;;4815339;29;20648;-77
2022/01/28 14:06:34;;;;;;;27.20;3.75;;;7.10;77.00;;;;;;4792713;29;20048;-77
2022/01/28 14:09:15;;;;;;;18.88;4.40;;;9.10;79.40;;;;;;4795528;29;20061;-77
2022/01/28 14:11:45;;;;;;;22.77;3.70;;;7.20;74.50;;;;;;4787732;29;20067;-78
2022/01/28 14:16:58;;;;;;;22.55;4.28;;;7.40;72.10;;;;;;4802048;29;20062;-77
2022/01/28 14:19:26;;;;;;;22.02;3.85;;;7.40;71.50;;;;;;4792324;29;20408;-78
2022/01/28 14:21:53;;;;;;;24.20;3.65;;;7.20;73.80;;;;;;4794959;29;20085;-77
2022/01/28 14:24:22;;;;;;;24.70;4.03;;;7.60;69.70;;;;;;4785608;29;20068;-77
2022/01/28 14:27:10;;;;;;;13.73;3.00;;;6.80;73.20;;;;;;4787688;30;20059;-77
2022/01/28 14:32:21;;;;;;;16.40;3.65;;;7.10;69.10;;;;;;4788612;29;20059;-77
2022/01/28 14:34:49;;;;;;;19.80;3.30;;;6.80;74.90;;;;;;4776114;30;20067;-78
2022/01/28 14:37:15;;;;;;;;;;;7.00;74.00;;;;;;4804361;29;20054;-78
2022/01/28 14:39:42;;;;;;;20.80;3.78;;;;;;;;;;4821467;29;19928;-77
2022/01/28 14:42:10;;;;;;;17.00;3.53;;;6.90;70.00;;;;;;4824011;29;20050;-78
2022/01/28 14:44:39;;;;;;;19.67;2.95;;;6.90;73.90;;;;;;4819124;29;20123;-80
2022/01/28 14:47:06;;;;;;;24.02;3.20;;;7.40;75.80;;;;;;4809828;29;20392;-77
2022/01/28 14:49:32;;;;;;;23.85;3.13;;;;;;;;;;4807699;29;20115;-78
2022/01/28 14:52:01;;;;;;;18.75;2.75;;;7.00;74.60;;;;;;4823754;29;20652;-77
2022/01/28 14:54:28;;;;;;;25.67;3.42;;;6.90;77.00;;;;;;4781495;29;20093;-78
2022/01/28 14:56:59;;;;;;;27.17;3.67;;;6.90;78.30;;;;;;4810662;29;20102;-77